sensor_id;sensor_type;location;lat;lon;timestamp;P1;durP1;ratioP1;P2;durP2;ratioP2
21503;SDS011;10913;51.992;9.228;2022-10-16T00:00:45;2.88;;;1.27;;
21503;SDS011;10913;51.992;9.228;2022-10-16T00:03:11;1.40;;;1.30;;
21503;SDS011;10913;51.992;9.228;2022-10-16T00:05:40;2.55;;;1.13;;
21503;SDS011;10913;51.992;9.228;2022-10-16T00:08:08;2.75;;;1.17;;
21503;SDS011;10913;51.992;9.228;2022-10-16T00:10:35;1.70;;;1.52;;
21503;SDS011;10913;51.992;9.228;2022-10-16T00:13:01;1.83;;;1.45;;
21503;SDS011;10913;51.992;9.228;2022-10-16T00:15:26;1.50;;;1.40;;
21503;SDS011;10913;51.992;9.228;2022-10-16T00:17:52;2.50;;;1.40;;
21503;SDS011;10913;51.992;9.228;2022-10-16T00:20:20;1.60;;;1.30;;
21503;SDS011;10913;51.992;9.228;2022-10-16T00:22:46;2.13;;;1.45;;
21503;SDS011;10913;51.992;9.228;2022-10-16T00:25:11;2.03;;;1.70;;
21503;SDS011;10913;51.992;9.228;2022-10-16T00:27:36;2.47;;;1.60;;
21503;SDS011;10913;51.992;9.228;2022-10-16T00:30:02;1.80;;;1.60;;
21503;SDS011;10913;51.992;9.228;2022-10-16T00:32:28;2.92;;;1.67;;
21503;SDS011;10913;51.992;9.228;2022-10-16T00:34:56;2.58;;;1.77;;
21503;SDS011;10913;51.992;9.228;2022-10-16T00:37:22;2.05;;;1.65;;
21503;SDS011;10913;51.992;9.228;2022-10-16T00:39:47;2.08;;;1.70;;
21503;SDS011;10913;51.992;9.228;2022-10-16T00:42:16;1.85;;;1.73;;
21503;SDS011;10913;51.992;9.228;2022-10-16T00:44:54;2.20;;;1.80;;
21503;SDS011;10913;51.992;9.228;2022-10-16T00:49:56;3.22;;;1.80;;
21503;SDS011;10913;51.992;9.228;2022-10-16T00:52:27;1.93;;;1.80;;
21503;SDS011;10913;51.992;9.228;2022-10-16T00:54:53;2.10;;;1.90;;
21503;SDS011;10913;51.992;9.228;2022-10-16T00:57:19;2.38;;;2.13;;
21503;SDS011;10913;51.992;9.228;2022-10-16T00:59:45;1.92;;;1.83;;
21503;SDS011;10913;51.992;9.228;2022-10-16T01:02:12;3.47;;;1.95;;
21503;SDS011;10913;51.992;9.228;2022-10-16T01:04:42;2.25;;;1.85;;
21503;SDS011;10913;51.992;9.228;2022-10-16T01:12:27;3.42;;;1.98;;
21503;SDS011;10913;51.992;9.228;2022-10-16T01:14:58;2.22;;;2.03;;
21503;SDS011;10913;51.992;9.228;2022-10-16T01:17:39;2.97;;;1.92;;
21503;SDS011;10913;51.992;9.228;2022-10-16T01:28:39;3.28;;;2.10;;
21503;SDS011;10913;51.992;9.228;2022-10-16T01:31:08;4.35;;;2.35;;
21503;SDS011;10913;51.992;9.228;2022-10-16T01:33:38;2.30;;;2.10;;
21503;SDS011;10913;51.992;9.228;2022-10-16T01:36:12;3.85;;;2.00;;
21503;SDS011;10913;51.992;9.228;2022-10-16T01:38:41;3.22;;;2.08;;
21503;SDS011;10913;51.992;9.228;2022-10-16T01:41:13;3.08;;;2.30;;
21503;SDS011;10913;51.992;9.228;2022-10-16T01:43:45;3.08;;;2.08;;
21503;SDS011;10913;51.992;9.228;2022-10-16T01:46:15;4.47;;;2.20;;
21503;SDS011;10913;51.992;9.228;2022-10-16T01:48:44;2.47;;;2.20;;
21503;SDS011;10913;51.992;9.228;2022-10-16T01:51:11;2.85;;;2.30;;
21503;SDS011;10913;51.992;9.228;2022-10-16T01:53:38;3.65;;;2.10;;
21503;SDS011;10913;51.992;9.228;2022-10-16T01:56:08;2.97;;;2.20;;
21503;SDS011;10913;51.992;9.228;2022-10-16T01:58:38;4.00;;;2.22;;
21503;SDS011;10913;51.992;9.228;2022-10-16T02:01:08;2.50;;;2.03;;
21503;SDS011;10913;51.992;9.228;2022-10-16T02:03:36;3.53;;;2.15;;
21503;SDS011;10913;51.992;9.228;2022-10-16T02:06:06;5.20;;;2.10;;
21503;SDS011;10913;51.992;9.228;2022-10-16T02:08:32;2.90;;;2.42;;
21503;SDS011;10913;51.992;9.228;2022-10-16T02:10:58;3.03;;;2.30;;
21503;SDS011;10913;51.992;9.228;2022-10-16T02:15:54;2.55;;;2.22;;
21503;SDS011;10913;51.992;9.228;2022-10-16T02:18:19;3.55;;;2.50;;
21503;SDS011;10913;51.992;9.228;2022-10-16T02:20:53;2.80;;;2.15;;
21503;SDS011;10913;51.992;9.228;2022-10-16T02:24:03;2.45;;;2.10;;
21503;SDS011;10913;51.992;9.228;2022-10-16T02:26:13;4.82;;;2.15;;
21503;SDS011;10913;51.992;9.228;2022-10-16T02:28:48;3.17;;;2.25;;
21503;SDS011;10913;51.992;9.228;2022-10-16T02:31:22;2.30;;;2.10;;
21503;SDS011;10913;51.992;9.228;2022-10-16T02:33:52;2.13;;;1.90;;
21503;SDS011;10913;51.992;9.228;2022-10-16T02:36:21;4.28;;;2.17;;
21503;SDS011;10913;51.992;9.228;2022-10-16T02:38:46;2.50;;;2.30;;
21503;SDS011;10913;51.992;9.228;2022-10-16T02:41:12;2.40;;;2.15;;
21503;SDS011;10913;51.992;9.228;2022-10-16T02:43:39;4.63;;;2.17;;
21503;SDS011;10913;51.992;9.228;2022-10-16T02:46:04;3.42;;;2.20;;
21503;SDS011;10913;51.992;9.228;2022-10-16T02:48:30;3.88;;;2.15;;
21503;SDS011;10913;51.992;9.228;2022-10-16T02:50:55;2.70;;;2.47;;
21503;SDS011;10913;51.992;9.228;2022-10-16T02:53:22;3.28;;;2.15;;
21503;SDS011;10913;51.992;9.228;2022-10-16T02:55:47;3.10;;;2.30;;
21503;SDS011;10913;51.992;9.228;2022-10-16T02:58:12;2.10;;;1.95;;
21503;SDS011;10913;51.992;9.228;2022-10-16T03:00:38;2.50;;;2.30;;
21503;SDS011;10913;51.992;9.228;2022-10-16T03:03:03;2.28;;;2.03;;
21503;SDS011;10913;51.992;9.228;2022-10-16T03:05:29;2.30;;;2.00;;
21503;SDS011;10913;51.992;9.228;2022-10-16T03:07:54;2.28;;;2.05;;
21503;SDS011;10913;51.992;9.228;2022-10-16T03:10:20;2.45;;;2.00;;
21503;SDS011;10913;51.992;9.228;2022-10-16T03:12:46;2.08;;;1.88;;
21503;SDS011;10913;51.992;9.228;2022-10-16T03:15:11;2.85;;;2.05;;
21503;SDS011;10913;51.992;9.228;2022-10-16T03:17:36;4.15;;;2.17;;
21503;SDS011;10913;51.992;9.228;2022-10-16T03:20:02;2.47;;;2.13;;
21503;SDS011;10913;51.992;9.228;2022-10-16T03:22:28;3.72;;;2.17;;
21503;SDS011;10913;51.992;9.228;2022-10-16T03:24:53;3.40;;;2.10;;
21503;SDS011;10913;51.992;9.228;2022-10-16T03:27:19;5.00;;;2.45;;
21503;SDS011;10913;51.992;9.228;2022-10-16T03:29:44;6.07;;;2.30;;
21503;SDS011;10913;51.992;9.228;2022-10-16T03:32:09;2.28;;;1.83;;
21503;SDS011;10913;51.992;9.228;2022-10-16T03:34:35;2.33;;;2.13;;
21503;SDS011;10913;51.992;9.228;2022-10-16T03:37:00;2.25;;;2.05;;
21503;SDS011;10913;51.992;9.228;2022-10-16T03:39:26;2.38;;;2.17;;
21503;SDS011;10913;51.992;9.228;2022-10-16T03:41:52;3.55;;;2.10;;
21503;SDS011;10913;51.992;9.228;2022-10-16T03:44:17;2.35;;;2.05;;
21503;SDS011;10913;51.992;9.228;2022-10-16T03:46:42;5.93;;;2.63;;
21503;SDS011;10913;51.992;9.228;2022-10-16T03:49:08;2.85;;;2.08;;
21503;SDS011;10913;51.992;9.228;2022-10-16T03:51:33;2.53;;;2.30;;
21503;SDS011;10913;51.992;9.228;2022-10-16T03:53:58;2.70;;;2.13;;
21503;SDS011;10913;51.992;9.228;2022-10-16T03:56:24;3.88;;;2.20;;
21503;SDS011;10913;51.992;9.228;2022-10-16T03:58:49;3.42;;;2.55;;
21503;SDS011;10913;51.992;9.228;2022-10-16T04:01:14;3.13;;;2.53;;
21503;SDS011;10913;51.992;9.228;2022-10-16T04:03:40;3.25;;;2.40;;
21503;SDS011;10913;51.992;9.228;2022-10-16T04:06:05;2.22;;;2.03;;
21503;SDS011;10913;51.992;9.228;2022-10-16T04:08:31;2.35;;;2.20;;
21503;SDS011;10913;51.992;9.228;2022-10-16T04:10:59;2.70;;;2.28;;
21503;SDS011;10913;51.992;9.228;2022-10-16T04:13:24;3.05;;;2.40;;
21503;SDS011;10913;51.992;9.228;2022-10-16T04:15:49;3.08;;;2.50;;
21503;SDS011;10913;51.992;9.228;2022-10-16T04:18:15;2.35;;;2.13;;
21503;SDS011;10913;51.992;9.228;2022-10-16T04:20:40;4.32;;;2.67;;
21503;SDS011;10913;51.992;9.228;2022-10-16T04:23:05;3.00;;;2.40;;
21503;SDS011;10913;51.992;9.228;2022-10-16T04:25:31;2.42;;;2.22;;
21503;SDS011;10913;51.992;9.228;2022-10-16T04:27:56;4.88;;;2.45;;
21503;SDS011;10913;51.992;9.228;2022-10-16T04:30:22;3.28;;;2.47;;
21503;SDS011;10913;51.992;9.228;2022-10-16T04:32:48;5.40;;;2.72;;
21503;SDS011;10913;51.992;9.228;2022-10-16T04:35:15;5.60;;;2.85;;
21503;SDS011;10913;51.992;9.228;2022-10-16T04:37:41;3.55;;;2.58;;
21503;SDS011;10913;51.992;9.228;2022-10-16T04:40:07;3.25;;;2.55;;
21503;SDS011;10913;51.992;9.228;2022-10-16T04:42:32;3.53;;;2.58;;
21503;SDS011;10913;51.992;9.228;2022-10-16T04:44:57;4.63;;;2.70;;
21503;SDS011;10913;51.992;9.228;2022-10-16T04:47:23;4.00;;;2.72;;
21503;SDS011;10913;51.992;9.228;2022-10-16T04:49:48;3.33;;;2.83;;
21503;SDS011;10913;51.992;9.228;2022-10-16T04:52:14;3.60;;;2.90;;
21503;SDS011;10913;51.992;9.228;2022-10-16T04:54:39;3.97;;;3.00;;
21503;SDS011;10913;51.992;9.228;2022-10-16T04:57:05;5.15;;;3.10;;
21503;SDS011;10913;51.992;9.228;2022-10-16T04:59:30;3.08;;;2.78;;
21503;SDS011;10913;51.992;9.228;2022-10-16T05:01:56;3.38;;;2.85;;
21503;SDS011;10913;51.992;9.228;2022-10-16T05:04:21;3.55;;;3.20;;
21503;SDS011;10913;51.992;9.228;2022-10-16T05:06:47;3.63;;;3.20;;
21503;SDS011;10913;51.992;9.228;2022-10-16T05:09:12;3.30;;;3.00;;
21503;SDS011;10913;51.992;9.228;2022-10-16T05:11:38;3.63;;;3.28;;
21503;SDS011;10913;51.992;9.228;2022-10-16T05:14:03;4.18;;;3.65;;
21503;SDS011;10913;51.992;9.228;2022-10-16T05:16:29;5.40;;;3.45;;
21503;SDS011;10913;51.992;9.228;2022-10-16T05:18:55;4.95;;;3.13;;
21503;SDS011;10913;51.992;9.228;2022-10-16T05:21:20;3.38;;;2.83;;
21503;SDS011;10913;51.992;9.228;2022-10-16T05:23:46;2.92;;;2.72;;
21503;SDS011;10913;51.992;9.228;2022-10-16T05:26:11;4.55;;;3.20;;
21503;SDS011;10913;51.992;9.228;2022-10-16T05:28:36;3.40;;;3.10;;
21503;SDS011;10913;51.992;9.228;2022-10-16T05:31:05;4.93;;;3.00;;
21503;SDS011;10913;51.992;9.228;2022-10-16T05:33:32;3.97;;;2.78;;
21503;SDS011;10913;51.992;9.228;2022-10-16T05:36:00;3.97;;;3.10;;
21503;SDS011;10913;51.992;9.228;2022-10-16T05:38:30;4.82;;;3.05;;
21503;SDS011;10913;51.992;9.228;2022-10-16T05:40:55;3.20;;;2.88;;
21503;SDS011;10913;51.992;9.228;2022-10-16T05:43:21;3.33;;;2.50;;
21503;SDS011;10913;51.992;9.228;2022-10-16T05:46:00;4.78;;;3.10;;
21503;SDS011;10913;51.992;9.228;2022-10-16T05:48:28;4.53;;;2.60;;
21503;SDS011;10913;51.992;9.228;2022-10-16T05:50:58;2.60;;;2.40;;
21503;SDS011;10913;51.992;9.228;2022-10-16T05:53:29;3.55;;;2.60;;
21503;SDS011;10913;51.992;9.228;2022-10-16T05:55:56;2.97;;;2.70;;
21503;SDS011;10913;51.992;9.228;2022-10-16T05:58:21;2.95;;;2.53;;
21503;SDS011;10913;51.992;9.228;2022-10-16T06:00:54;2.45;;;2.25;;
21503;SDS011;10913;51.992;9.228;2022-10-16T06:03:20;3.80;;;2.55;;
21503;SDS011;10913;51.992;9.228;2022-10-16T06:05:46;2.70;;;2.40;;
21503;SDS011;10913;51.992;9.228;2022-10-16T06:08:11;2.92;;;2.33;;
21503;SDS011;10913;51.992;9.228;2022-10-16T06:10:37;2.50;;;2.30;;
21503;SDS011;10913;51.992;9.228;2022-10-16T06:13:02;2.60;;;2.40;;
21503;SDS011;10913;51.992;9.228;2022-10-16T06:15:27;2.33;;;2.22;;
21503;SDS011;10913;51.992;9.228;2022-10-16T06:17:53;2.15;;;1.90;;
21503;SDS011;10913;51.992;9.228;2022-10-16T06:20:18;2.78;;;2.13;;
21503;SDS011;10913;51.992;9.228;2022-10-16T06:22:43;3.92;;;3.53;;
21503;SDS011;10913;51.992;9.228;2022-10-16T06:25:09;3.10;;;2.80;;
21503;SDS011;10913;51.992;9.228;2022-10-16T06:27:34;4.10;;;2.70;;
21503;SDS011;10913;51.992;9.228;2022-10-16T06:29:59;2.47;;;2.28;;
21503;SDS011;10913;51.992;9.228;2022-10-16T06:32:25;2.25;;;2.05;;
21503;SDS011;10913;51.992;9.228;2022-10-16T06:34:52;2.25;;;2.10;;
21503;SDS011;10913;51.992;9.228;2022-10-16T06:37:17;2.00;;;1.80;;
21503;SDS011;10913;51.992;9.228;2022-10-16T06:39:42;2.25;;;2.05;;
21503;SDS011;10913;51.992;9.228;2022-10-16T06:42:08;2.53;;;1.90;;
21503;SDS011;10913;51.992;9.228;2022-10-16T06:44:33;2.13;;;1.98;;
21503;SDS011;10913;51.992;9.228;2022-10-16T06:46:58;1.98;;;1.88;;
21503;SDS011;10913;51.992;9.228;2022-10-16T06:49:24;2.08;;;1.88;;
21503;SDS011;10913;51.992;9.228;2022-10-16T06:51:53;2.10;;;1.90;;
21503;SDS011;10913;51.992;9.228;2022-10-16T06:54:18;2.47;;;2.10;;
21503;SDS011;10913;51.992;9.228;2022-10-16T06:56:44;2.17;;;1.92;;
21503;SDS011;10913;51.992;9.228;2022-10-16T06:59:09;2.10;;;1.90;;
21503;SDS011;10913;51.992;9.228;2022-10-16T07:01:35;2.35;;;2.08;;
21503;SDS011;10913;51.992;9.228;2022-10-16T07:04:00;2.67;;;2.47;;
21503;SDS011;10913;51.992;9.228;2022-10-16T07:06:27;3.08;;;2.67;;
21503;SDS011;10913;51.992;9.228;2022-10-16T07:08:55;3.80;;;2.70;;
21503;SDS011;10913;51.992;9.228;2022-10-16T07:11:22;2.65;;;2.45;;
21503;SDS011;10913;51.992;9.228;2022-10-16T07:13:48;2.45;;;1.90;;
21503;SDS011;10913;51.992;9.228;2022-10-16T07:16:16;3.80;;;1.75;;
21503;SDS011;10913;51.992;9.228;2022-10-16T07:18:43;1.73;;;1.63;;
21503;SDS011;10913;51.992;9.228;2022-10-16T07:21:11;1.85;;;1.70;;
21503;SDS011;10913;51.992;9.228;2022-10-16T07:23:39;1.80;;;1.70;;
21503;SDS011;10913;51.992;9.228;2022-10-16T07:26:05;2.03;;;1.50;;
21503;SDS011;10913;51.992;9.228;2022-10-16T07:28:31;3.63;;;1.83;;
21503;SDS011;10913;51.992;9.228;2022-10-16T07:31:05;3.22;;;1.63;;
21503;SDS011;10913;51.992;9.228;2022-10-16T07:33:33;1.58;;;1.30;;
21503;SDS011;10913;51.992;9.228;2022-10-16T07:35:59;2.72;;;1.60;;
21503;SDS011;10913;51.992;9.228;2022-10-16T07:38:25;2.30;;;1.80;;
21503;SDS011;10913;51.992;9.228;2022-10-16T07:40:57;1.75;;;1.40;;
21503;SDS011;10913;51.992;9.228;2022-10-16T07:43:25;2.25;;;1.58;;
21503;SDS011;10913;51.992;9.228;2022-10-16T07:45:51;2.60;;;1.13;;
21503;SDS011;10913;51.992;9.228;2022-10-16T07:48:17;1.20;;;1.10;;
21503;SDS011;10913;51.992;9.228;2022-10-16T07:50:43;1.30;;;1.20;;
21503;SDS011;10913;51.992;9.228;2022-10-16T07:53:09;1.20;;;1.00;;
21503;SDS011;10913;51.992;9.228;2022-10-16T07:55:35;1.10;;;1.00;;
21503;SDS011;10913;51.992;9.228;2022-10-16T07:58:01;0.90;;;0.90;;
21503;SDS011;10913;51.992;9.228;2022-10-16T08:00:26;1.77;;;1.17;;
21503;SDS011;10913;51.992;9.228;2022-10-16T08:02:52;3.83;;;0.90;;
21503;SDS011;10913;51.992;9.228;2022-10-16T08:05:17;1.83;;;0.90;;
21503;SDS011;10913;51.992;9.228;2022-10-16T08:07:42;1.02;;;0.95;;
21503;SDS011;10913;51.992;9.228;2022-10-16T08:10:27;1.70;;;0.90;;
21503;SDS011;10913;51.992;9.228;2022-10-16T08:12:53;1.13;;;1.00;;
21503;SDS011;10913;51.992;9.228;2022-10-16T08:15:19;1.23;;;0.90;;
21503;SDS011;10913;51.992;9.228;2022-10-16T08:17:53;4.22;;;1.00;;
21503;SDS011;10913;51.992;9.228;2022-10-16T08:20:20;1.60;;;0.98;;
21503;SDS011;10913;51.992;9.228;2022-10-16T08:22:45;1.27;;;0.90;;
21503;SDS011;10913;51.992;9.228;2022-10-16T08:25:10;1.73;;;0.90;;
21503;SDS011;10913;51.992;9.228;2022-10-16T08:27:36;1.20;;;1.10;;
21503;SDS011;10913;51.992;9.228;2022-10-16T08:30:01;1.02;;;0.95;;
21503;SDS011;10913;51.992;9.228;2022-10-16T08:32:27;1.38;;;0.80;;
21503;SDS011;10913;51.992;9.228;2022-10-16T08:34:52;0.88;;;0.70;;
21503;SDS011;10913;51.992;9.228;2022-10-16T08:37:17;1.33;;;0.70;;
21503;SDS011;10913;51.992;9.228;2022-10-16T08:39:43;1.13;;;1.00;;
21503;SDS011;10913;51.992;9.228;2022-10-16T08:45:17;1.98;;;0.93;;
21503;SDS011;10913;51.992;9.228;2022-10-16T08:47:59;2.15;;;1.00;;
21503;SDS011;10913;51.992;9.228;2022-10-16T08:50:28;1.55;;;0.80;;
21503;SDS011;10913;51.992;9.228;2022-10-16T08:52:56;0.90;;;0.88;;
21503;SDS011;10913;51.992;9.228;2022-10-16T08:58:12;1.15;;;0.90;;
21503;SDS011;10913;51.992;9.228;2022-10-16T09:00:40;0.75;;;0.75;;
21503;SDS011;10913;51.992;9.228;2022-10-16T09:16:19;1.70;;;0.95;;
21503;SDS011;10913;51.992;9.228;2022-10-16T09:19:00;1.63;;;0.80;;
21503;SDS011;10913;51.992;9.228;2022-10-16T09:21:44;1.73;;;0.77;;
21503;SDS011;10913;51.992;9.228;2022-10-16T09:24:14;2.45;;;0.80;;
21503;SDS011;10913;51.992;9.228;2022-10-16T09:26:44;2.47;;;0.80;;
21503;SDS011;10913;51.992;9.228;2022-10-16T09:29:17;2.60;;;0.90;;
21503;SDS011;10913;51.992;9.228;2022-10-16T09:31:45;1.98;;;0.70;;
21503;SDS011;10913;51.992;9.228;2022-10-16T09:34:15;0.60;;;0.50;;
21503;SDS011;10913;51.992;9.228;2022-10-16T09:36:55;1.63;;;0.70;;
21503;SDS011;10913;51.992;9.228;2022-10-16T09:39:23;1.15;;;0.70;;
21503;SDS011;10913;51.992;9.228;2022-10-16T09:41:49;1.05;;;0.70;;
21503;SDS011;10913;51.992;9.228;2022-10-16T09:44:24;1.85;;;0.85;;
21503;SDS011;10913;51.992;9.228;2022-10-16T09:47:02;1.25;;;0.80;;
21503;SDS011;10913;51.992;9.228;2022-10-16T09:49:28;1.52;;;0.70;;
21503;SDS011;10913;51.992;9.228;2022-10-16T09:52:09;2.20;;;1.00;;
21503;SDS011;10913;51.992;9.228;2022-10-16T09:54:37;1.95;;;0.70;;
21503;SDS011;10913;51.992;9.228;2022-10-16T09:57:06;1.80;;;0.65;;
21503;SDS011;10913;51.992;9.228;2022-10-16T09:59:32;1.65;;;0.63;;
21503;SDS011;10913;51.992;9.228;2022-10-16T10:02:01;1.42;;;0.80;;
21503;SDS011;10913;51.992;9.228;2022-10-16T10:04:36;1.73;;;0.90;;
21503;SDS011;10913;51.992;9.228;2022-10-16T10:07:04;4.25;;;0.70;;
21503;SDS011;10913;51.992;9.228;2022-10-16T10:09:31;1.50;;;0.70;;
21503;SDS011;10913;51.992;9.228;2022-10-16T10:12:03;0.88;;;0.60;;
21503;SDS011;10913;51.992;9.228;2022-10-16T10:14:31;1.17;;;0.60;;
21503;SDS011;10913;51.992;9.228;2022-10-16T10:19:29;1.77;;;0.70;;
21503;SDS011;10913;51.992;9.228;2022-10-16T10:21:54;1.75;;;0.70;;
21503;SDS011;10913;51.992;9.228;2022-10-16T10:24:20;0.93;;;0.63;;
21503;SDS011;10913;51.992;9.228;2022-10-16T10:27:28;1.23;;;0.70;;
21503;SDS011;10913;51.992;9.228;2022-10-16T10:29:47;1.17;;;0.70;;
21503;SDS011;10913;51.992;9.228;2022-10-16T10:32:27;2.10;;;0.80;;
21503;SDS011;10913;51.992;9.228;2022-10-16T10:40:18;2.35;;;0.70;;
21503;SDS011;10913;51.992;9.228;2022-10-16T10:45:51;2.20;;;0.60;;
21503;SDS011;10913;51.992;9.228;2022-10-16T10:51:23;0.68;;;0.63;;
21503;SDS011;10913;51.992;9.228;2022-10-16T10:54:06;0.50;;;0.50;;
21503;SDS011;10913;51.992;9.228;2022-10-16T11:02:29;0.80;;;0.50;;
21503;SDS011;10913;51.992;9.228;2022-10-16T11:07:48;1.02;;;0.40;;
21503;SDS011;10913;51.992;9.228;2022-10-16T11:10:21;1.48;;;0.50;;
21503;SDS011;10913;51.992;9.228;2022-10-16T11:16:12;0.85;;;0.50;;
21503;SDS011;10913;51.992;9.228;2022-10-16T11:19:03;1.05;;;0.60;;
21503;SDS011;10913;51.992;9.228;2022-10-16T11:21:30;2.10;;;0.70;;
21503;SDS011;10913;51.992;9.228;2022-10-16T11:24:06;1.45;;;0.60;;
21503;SDS011;10913;51.992;9.228;2022-10-16T11:26:42;1.95;;;0.70;;
21503;SDS011;10913;51.992;9.228;2022-10-16T11:29:13;1.48;;;0.60;;
21503;SDS011;10913;51.992;9.228;2022-10-16T11:31:48;1.80;;;1.00;;
21503;SDS011;10913;51.992;9.228;2022-10-16T11:37:01;0.60;;;0.60;;
21503;SDS011;10913;51.992;9.228;2022-10-16T11:39:33;0.52;;;0.52;;
21503;SDS011;10913;51.992;9.228;2022-10-16T11:47:35;0.60;;;0.50;;
21503;SDS011;10913;51.992;9.228;2022-10-16T11:50:43;1.55;;;0.55;;
21503;SDS011;10913;51.992;9.228;2022-10-16T11:56:16;1.15;;;0.60;;
21503;SDS011;10913;51.992;9.228;2022-10-16T11:58:54;0.60;;;0.50;;
21503;SDS011;10913;51.992;9.228;2022-10-16T12:01:31;2.28;;;0.60;;
21503;SDS011;10913;51.992;9.228;2022-10-16T12:06:53;1.65;;;0.50;;
21503;SDS011;10913;51.992;9.228;2022-10-16T12:09:28;2.35;;;0.65;;
21503;SDS011;10913;51.992;9.228;2022-10-16T12:11:55;1.42;;;0.60;;
21503;SDS011;10913;51.992;9.228;2022-10-16T12:14:22;0.93;;;0.60;;
21503;SDS011;10913;51.992;9.228;2022-10-16T12:16:59;1.17;;;0.63;;
21503;SDS011;10913;51.992;9.228;2022-10-16T12:19:31;0.90;;;0.60;;
21503;SDS011;10913;51.992;9.228;2022-10-16T12:22:00;2.35;;;0.70;;
21503;SDS011;10913;51.992;9.228;2022-10-16T12:27:06;2.20;;;0.65;;
21503;SDS011;10913;51.992;9.228;2022-10-16T12:29:49;1.35;;;0.75;;
21503;SDS011;10913;51.992;9.228;2022-10-16T12:32:37;2.33;;;0.60;;
21503;SDS011;10913;51.992;9.228;2022-10-16T12:35:05;1.60;;;0.75;;
21503;SDS011;10913;51.992;9.228;2022-10-16T12:37:42;0.90;;;0.50;;
21503;SDS011;10913;51.992;9.228;2022-10-16T12:40:29;1.65;;;0.60;;
21503;SDS011;10913;51.992;9.228;2022-10-16T12:42:57;2.72;;;0.75;;
21503;SDS011;10913;51.992;9.228;2022-10-16T12:45:24;1.23;;;0.65;;
21503;SDS011;10913;51.992;9.228;2022-10-16T12:47:56;1.60;;;0.60;;
21503;SDS011;10913;51.992;9.228;2022-10-16T12:50:36;1.20;;;0.70;;
21503;SDS011;10913;51.992;9.228;2022-10-16T12:53:16;1.23;;;0.63;;
21503;SDS011;10913;51.992;9.228;2022-10-16T12:56:04;0.63;;;0.50;;
21503;SDS011;10913;51.992;9.228;2022-10-16T13:07:30;0.68;;;0.50;;
21503;SDS011;10913;51.992;9.228;2022-10-16T13:26:37;1.48;;;0.65;;
21503;SDS011;10913;51.992;9.228;2022-10-16T13:29:19;2.25;;;0.80;;
21503;SDS011;10913;51.992;9.228;2022-10-16T13:31:45;2.08;;;0.70;;
21503;SDS011;10913;51.992;9.228;2022-10-16T13:34:17;1.70;;;0.68;;
21503;SDS011;10913;51.992;9.228;2022-10-16T13:36:48;0.98;;;0.60;;
21503;SDS011;10913;51.992;9.228;2022-10-16T13:42:04;1.52;;;0.70;;
21503;SDS011;10913;51.992;9.228;2022-10-16T13:44:31;0.70;;;0.70;;
21503;SDS011;10913;51.992;9.228;2022-10-16T13:47:02;0.77;;;0.70;;
21503;SDS011;10913;51.992;9.228;2022-10-16T13:49:28;1.63;;;0.90;;
21503;SDS011;10913;51.992;9.228;2022-10-16T13:51:54;2.55;;;0.80;;
21503;SDS011;10913;51.992;9.228;2022-10-16T13:54:21;1.60;;;0.80;;
21503;SDS011;10913;51.992;9.228;2022-10-16T13:56:47;1.58;;;0.70;;
21503;SDS011;10913;51.992;9.228;2022-10-16T13:59:25;0.85;;;0.60;;
21503;SDS011;10913;51.992;9.228;2022-10-16T14:01:57;0.52;;;0.52;;
21503;SDS011;10913;51.992;9.228;2022-10-16T14:04:31;0.88;;;0.60;;
21503;SDS011;10913;51.992;9.228;2022-10-16T14:06:57;2.90;;;0.60;;
21503;SDS011;10913;51.992;9.228;2022-10-16T14:09:24;1.40;;;0.60;;
21503;SDS011;10913;51.992;9.228;2022-10-16T14:11:53;0.73;;;0.57;;
21503;SDS011;10913;51.992;9.228;2022-10-16T14:14:23;0.60;;;0.60;;
21503;SDS011;10913;51.992;9.228;2022-10-16T14:16:49;4.78;;;2.05;;
21503;SDS011;10913;51.992;9.228;2022-10-16T14:19:22;3.78;;;3.47;;
21503;SDS011;10913;51.992;9.228;2022-10-16T14:21:51;1.60;;;1.40;;
21503;SDS011;10913;51.992;9.228;2022-10-16T14:24:27;1.45;;;0.60;;
21503;SDS011;10913;51.992;9.228;2022-10-16T14:26:58;1.00;;;0.70;;
21503;SDS011;10913;51.992;9.228;2022-10-16T14:29:25;0.88;;;0.50;;
21503;SDS011;10913;51.992;9.228;2022-10-16T14:32:02;1.33;;;0.60;;
21503;SDS011;10913;51.992;9.228;2022-10-16T14:36:56;0.95;;;0.60;;
21503;SDS011;10913;51.992;9.228;2022-10-16T14:39:27;1.25;;;0.60;;
21503;SDS011;10913;51.992;9.228;2022-10-16T14:41:54;0.60;;;0.57;;
21503;SDS011;10913;51.992;9.228;2022-10-16T14:44:22;0.63;;;0.50;;
21503;SDS011;10913;51.992;9.228;2022-10-16T14:46:54;2.40;;;0.63;;
21503;SDS011;10913;51.992;9.228;2022-10-16T14:49:19;1.35;;;0.77;;
21503;SDS011;10913;51.992;9.228;2022-10-16T14:51:47;1.42;;;0.70;;
21503;SDS011;10913;51.992;9.228;2022-10-16T14:54:14;1.55;;;0.50;;
21503;SDS011;10913;51.992;9.228;2022-10-16T14:56:47;0.95;;;0.60;;
21503;SDS011;10913;51.992;9.228;2022-10-16T15:02:01;1.55;;;0.60;;
21503;SDS011;10913;51.992;9.228;2022-10-16T15:04:42;0.93;;;0.57;;
21503;SDS011;10913;51.992;9.228;2022-10-16T15:07:08;1.38;;;0.50;;
21503;SDS011;10913;51.992;9.228;2022-10-16T15:09:33;0.77;;;0.55;;
21503;SDS011;10913;51.992;9.228;2022-10-16T15:11:58;0.95;;;0.60;;
21503;SDS011;10913;51.992;9.228;2022-10-16T15:14:24;1.48;;;0.90;;
21503;SDS011;10913;51.992;9.228;2022-10-16T15:16:49;0.68;;;0.50;;
21503;SDS011;10913;51.992;9.228;2022-10-16T15:19:14;1.10;;;0.57;;
21503;SDS011;10913;51.992;9.228;2022-10-16T15:21:40;0.68;;;0.60;;
21503;SDS011;10913;51.992;9.228;2022-10-16T15:24:08;0.65;;;0.52;;
21503;SDS011;10913;51.992;9.228;2022-10-16T15:26:37;1.92;;;0.60;;
21503;SDS011;10913;51.992;9.228;2022-10-16T15:29:02;1.13;;;0.60;;
21503;SDS011;10913;51.992;9.228;2022-10-16T15:31:27;1.52;;;0.70;;
21503;SDS011;10913;51.992;9.228;2022-10-16T15:33:53;1.60;;;0.70;;
21503;SDS011;10913;51.992;9.228;2022-10-16T15:36:29;1.63;;;0.70;;
21503;SDS011;10913;51.992;9.228;2022-10-16T15:38:56;1.55;;;0.77;;
21503;SDS011;10913;51.992;9.228;2022-10-16T15:41:22;2.72;;;0.80;;
21503;SDS011;10913;51.992;9.228;2022-10-16T15:43:48;2.60;;;0.80;;
21503;SDS011;10913;51.992;9.228;2022-10-16T15:46:15;1.30;;;0.70;;
21503;SDS011;10913;51.992;9.228;2022-10-16T15:48:43;3.53;;;0.80;;
21503;SDS011;10913;51.992;9.228;2022-10-16T15:51:09;3.50;;;0.65;;
21503;SDS011;10913;51.992;9.228;2022-10-16T15:53:35;0.75;;;0.52;;
21503;SDS011;10913;51.992;9.228;2022-10-16T15:56:04;1.90;;;0.90;;
21503;SDS011;10913;51.992;9.228;2022-10-16T15:58:30;1.75;;;1.30;;
21503;SDS011;10913;51.992;9.228;2022-10-16T16:00:56;3.15;;;1.05;;
21503;SDS011;10913;51.992;9.228;2022-10-16T16:03:22;1.55;;;0.73;;
21503;SDS011;10913;51.992;9.228;2022-10-16T16:05:48;2.35;;;0.80;;
21503;SDS011;10913;51.992;9.228;2022-10-16T16:08:13;2.60;;;1.13;;
21503;SDS011;10913;51.992;9.228;2022-10-16T16:10:39;1.58;;;0.82;;
21503;SDS011;10913;51.992;9.228;2022-10-16T16:13:04;1.83;;;0.80;;
21503;SDS011;10913;51.992;9.228;2022-10-16T16:15:30;2.50;;;0.70;;
21503;SDS011;10913;51.992;9.228;2022-10-16T16:17:55;3.03;;;0.77;;
21503;SDS011;10913;51.992;9.228;2022-10-16T16:20:20;1.85;;;0.80;;
21503;SDS011;10913;51.992;9.228;2022-10-16T16:22:46;0.80;;;0.80;;
21503;SDS011;10913;51.992;9.228;2022-10-16T16:25:12;1.65;;;0.70;;
21503;SDS011;10913;51.992;9.228;2022-10-16T16:27:37;1.73;;;0.90;;
21503;SDS011;10913;51.992;9.228;2022-10-16T16:30:04;3.25;;;1.00;;
21503;SDS011;10913;51.992;9.228;2022-10-16T16:32:32;1.45;;;0.80;;
21503;SDS011;10913;51.992;9.228;2022-10-16T16:34:58;3.10;;;0.80;;
21503;SDS011;10913;51.992;9.228;2022-10-16T16:37:23;1.85;;;0.60;;
21503;SDS011;10913;51.992;9.228;2022-10-16T16:39:49;2.38;;;0.80;;
21503;SDS011;10913;51.992;9.228;2022-10-16T16:42:14;2.08;;;0.80;;
21503;SDS011;10913;51.992;9.228;2022-10-16T16:44:40;3.75;;;0.73;;
21503;SDS011;10913;51.992;9.228;2022-10-16T16:47:05;1.95;;;0.63;;
21503;SDS011;10913;51.992;9.228;2022-10-16T16:49:31;1.77;;;0.55;;